SFJ78 RJFR-RJTT
Flight info
| Callsign | SFJ78 |
|---|---|
| Flight time | 1h 10m |
| Altitude | 37000 |
| Route | FIATO Y61 KTE Y33 SHOOT Y71 XAC |
| Aircraft | A320/M-SDE3FGHIRWY/LB1 |
Departure
| Time | 2026-04-12 01:18 |
|---|---|
| Airport | Kitakyushu Airport (RJFR) |
Arrival
| Time | 2026-04-12 02:28 |
|---|---|
| Airport | Tokyo Haneda International Airport (RJTT) |
| Time | Latitude | Longitude | Altitude | Speed | Heading |
|---|---|---|---|---|---|
| 2026-04-12 01:03 | 33.84030 | 131.03247 | 30 ft | 0 kts | 260° |
| 2026-04-12 01:07 | 33.84031 | 131.03255 | 30 ft | 0 kts | 260° |
| 2026-04-12 01:09 | 33.84032 | 131.03267 | 30 ft | 4 kts | 260° |
| 2026-04-12 01:10 | 33.84037 | 131.03299 | 30 ft | 4 kts | 260° |
| 2026-04-12 01:10 | 33.84041 | 131.03331 | 30 ft | 4 kts | 260° |
| 2026-04-12 01:10 | 33.84047 | 131.03372 | 30 ft | 3 kts | 261° |
| 2026-04-12 01:10 | 33.84056 | 131.03399 | 30 ft | 4 kts | 205° |
| 2026-04-12 01:11 | 33.84072 | 131.03403 | 30 ft | 4 kts | 176° |
| 2026-04-12 01:11 | 33.84087 | 131.03401 | 30 ft | 0 kts | 170° |
| 2026-04-12 01:14 | 33.84038 | 131.03412 | 30 ft | 14 kts | 170° |
| 2026-04-12 01:14 | 33.83909 | 131.03438 | 30 ft | 21 kts | 171° |
| 2026-04-12 01:14 | 33.83756 | 131.03469 | 30 ft | 22 kts | 172° |
| 2026-04-12 01:15 | 33.83643 | 131.03492 | 30 ft | 9 kts | 170° |
| 2026-04-12 01:15 | 33.83581 | 131.03504 | 30 ft | 9 kts | 170° |
| 2026-04-12 01:15 | 33.83522 | 131.03516 | 30 ft | 8 kts | 170° |
| 2026-04-12 01:15 | 33.83473 | 131.03533 | 30 ft | 7 kts | 150° |
| 2026-04-12 01:16 | 33.83450 | 131.03573 | 30 ft | 5 kts | 105° |
| 2026-04-12 01:16 | 33.83451 | 131.03607 | 31 ft | 3 kts | 82° |
| 2026-04-12 01:16 | 33.83453 | 131.03623 | 31 ft | 1 kts | 81° |
| 2026-04-12 01:16 | 33.83459 | 131.03665 | 31 ft | 9 kts | 80° |
| 2026-04-12 01:17 | 33.83466 | 131.03712 | 33 ft | 4 kts | 80° |
| 2026-04-12 01:17 | 33.83483 | 131.03727 | 33 ft | 3 kts | 9° |
| 2026-04-12 01:17 | 33.83578 | 131.03707 | 31 ft | 43 kts | 350° |
| 2026-04-12 01:17 | 33.84137 | 131.03593 | 28 ft | 115 kts | 350° |
| 2026-04-12 01:18 | 33.85109 | 131.03391 | 132 ft | 158 kts | 349° |
| 2026-04-12 01:18 | 33.86205 | 131.03165 | 815 ft | 160 kts | 358° |
| 2026-04-12 01:18 | 33.87226 | 131.03591 | 1542 ft | 159 kts | 45° |
| 2026-04-12 01:18 | 33.87785 | 131.04745 | 2126 ft | 169 kts | 79° |
| 2026-04-12 01:19 | 33.87648 | 131.06225 | 2491 ft | 191 kts | 106° |
| 2026-04-12 01:19 | 33.87238 | 131.07859 | 2869 ft | 216 kts | 106° |
| 2026-04-12 01:19 | 33.86777 | 131.09688 | 3366 ft | 241 kts | 106° |
| 2026-04-12 01:19 | 33.86271 | 131.11705 | 3966 ft | 260 kts | 106° |
| 2026-04-12 01:20 | 33.85741 | 131.13818 | 4860 ft | 267 kts | 106° |
| 2026-04-12 01:20 | 33.85199 | 131.15979 | 5797 ft | 273 kts | 106° |
| 2026-04-12 01:20 | 33.84655 | 131.18163 | 6694 ft | 279 kts | 105° |
| 2026-04-12 01:20 | 33.84092 | 131.20426 | 7559 ft | 286 kts | 106° |
| 2026-04-12 01:21 | 33.83513 | 131.22747 | 8425 ft | 293 kts | 106° |
| 2026-04-12 01:21 | 33.82917 | 131.25121 | 9280 ft | 299 kts | 106° |
| 2026-04-12 01:21 | 33.82304 | 131.27539 | 10126 ft | 305 kts | 106° |
| 2026-04-12 01:21 | 33.81665 | 131.30064 | 10564 ft | 327 kts | 106° |
| 2026-04-12 01:22 | 33.80981 | 131.32777 | 10966 ft | 347 kts | 106° |
| 2026-04-12 01:22 | 33.80275 | 131.35588 | 11693 ft | 354 kts | 107° |
| 2026-04-12 01:22 | 33.79560 | 131.38438 | 12517 ft | 358 kts | 107° |
| 2026-04-12 01:22 | 33.78836 | 131.41321 | 13300 ft | 362 kts | 107° |
| 2026-04-12 01:23 | 33.78102 | 131.44237 | 14025 ft | 367 kts | 107° |
| 2026-04-12 01:23 | 33.77351 | 131.47199 | 14697 ft | 373 kts | 107° |
| 2026-04-12 01:23 | 33.76591 | 131.50195 | 15381 ft | 378 kts | 107° |
| 2026-04-12 01:23 | 33.75819 | 131.53236 | 16051 ft | 383 kts | 107° |
| 2026-04-12 01:24 | 33.75038 | 131.56311 | 16706 ft | 387 kts | 107° |
| 2026-04-12 01:24 | 33.74247 | 131.59427 | 17348 ft | 392 kts | 107° |
| 2026-04-12 01:24 | 33.73474 | 131.62584 | 17973 ft | 396 kts | 105° |
| 2026-04-12 01:24 | 33.72806 | 131.65814 | 18570 ft | 401 kts | 102° |
| 2026-04-12 01:25 | 33.72218 | 131.69110 | 19137 ft | 406 kts | 101° |
| 2026-04-12 01:25 | 33.71660 | 131.72469 | 19658 ft | 412 kts | 101° |
| 2026-04-12 01:25 | 33.71100 | 131.75873 | 20171 ft | 418 kts | 101° |
| 2026-04-12 01:25 | 33.70516 | 131.79317 | 20655 ft | 425 kts | 101° |
| 2026-04-12 01:26 | 33.69906 | 131.82809 | 21138 ft | 430 kts | 102° |
| 2026-04-12 01:26 | 33.69270 | 131.86347 | 21608 ft | 436 kts | 102° |
| 2026-04-12 01:26 | 33.68612 | 131.89922 | 22059 ft | 441 kts | 102° |
| 2026-04-12 01:26 | 33.67963 | 131.93496 | 22502 ft | 447 kts | 100° |
| 2026-04-12 01:27 | 33.67643 | 131.97227 | 22921 ft | 452 kts | 89° |
| 2026-04-12 01:27 | 33.67848 | 132.01004 | 23334 ft | 454 kts | 78° |
| 2026-04-12 01:27 | 33.68580 | 132.04693 | 23746 ft | 456 kts | 68° |
| 2026-04-12 01:27 | 33.69796 | 132.08208 | 24130 ft | 457 kts | 60° |
| 2026-04-12 01:28 | 33.71155 | 132.11685 | 24543 ft | 462 kts | 61° |
| 2026-04-12 01:28 | 33.72516 | 132.15195 | 24942 ft | 466 kts | 61° |
| 2026-04-12 01:28 | 33.73881 | 132.18746 | 25318 ft | 469 kts | 61° |
| 2026-04-12 01:28 | 33.75251 | 132.22326 | 25717 ft | 473 kts | 61° |
| 2026-04-12 01:29 | 33.76631 | 132.25940 | 26103 ft | 477 kts | 61° |
| 2026-04-12 01:29 | 33.78018 | 132.29573 | 26480 ft | 480 kts | 61° |
| 2026-04-12 01:29 | 33.79421 | 132.33244 | 26846 ft | 484 kts | 61° |
| 2026-04-12 01:29 | 33.80831 | 132.36935 | 27195 ft | 488 kts | 61° |
| 2026-04-12 01:30 | 33.82252 | 132.40652 | 27548 ft | 492 kts | 61° |
| 2026-04-12 01:30 | 33.83684 | 132.44402 | 27899 ft | 495 kts | 61° |
| 2026-04-12 01:30 | 33.85125 | 132.48182 | 28237 ft | 499 kts | 61° |
| 2026-04-12 01:30 | 33.86577 | 132.51992 | 28572 ft | 502 kts | 61° |
| 2026-04-12 01:31 | 33.88034 | 132.55821 | 28901 ft | 506 kts | 61° |
| 2026-04-12 01:31 | 33.89503 | 132.59682 | 29207 ft | 509 kts | 61° |
| 2026-04-12 01:31 | 33.90983 | 132.63579 | 29507 ft | 513 kts | 61° |
| 2026-04-12 01:31 | 33.92406 | 132.67463 | 29783 ft | 518 kts | 65° |
| 2026-04-12 01:32 | 33.93490 | 132.71640 | 30065 ft | 525 kts | 72° |
| 2026-04-12 01:32 | 33.94410 | 132.75909 | 30330 ft | 528 kts | 72° |
| 2026-04-12 01:32 | 33.95342 | 132.80203 | 30585 ft | 532 kts | 72° |
| 2026-04-12 01:32 | 33.96284 | 132.84540 | 30818 ft | 536 kts | 72° |
| 2026-04-12 01:33 | 33.97233 | 132.88895 | 31054 ft | 540 kts | 72° |
| 2026-04-12 01:33 | 33.98188 | 132.93289 | 31281 ft | 544 kts | 72° |
| 2026-04-12 01:33 | 33.99146 | 132.97715 | 31556 ft | 547 kts | 71° |
| 2026-04-12 01:33 | 34.00103 | 133.02154 | 31908 ft | 548 kts | 71° |
| 2026-04-12 01:34 | 34.01063 | 133.06597 | 32229 ft | 549 kts | 71° |
| 2026-04-12 01:34 | 34.02026 | 133.11057 | 32598 ft | 549 kts | 71° |
| 2026-04-12 01:34 | 34.02988 | 133.15519 | 32897 ft | 551 kts | 71° |
| 2026-04-12 01:34 | 34.03952 | 133.20006 | 33168 ft | 553 kts | 71° |
| 2026-04-12 01:35 | 34.04915 | 133.24497 | 33464 ft | 554 kts | 71° |
| 2026-04-12 01:35 | 34.05878 | 133.29008 | 33751 ft | 556 kts | 71° |
| 2026-04-12 01:35 | 34.06839 | 133.33532 | 34043 ft | 558 kts | 70° |
| 2026-04-12 01:35 | 34.07800 | 133.38067 | 34343 ft | 559 kts | 70° |
| 2026-04-12 01:36 | 34.08762 | 133.42616 | 34654 ft | 560 kts | 70° |
| 2026-04-12 01:36 | 34.09722 | 133.47165 | 34970 ft | 560 kts | 70° |
| 2026-04-12 01:36 | 34.10612 | 133.51373 | 35262 ft | 559 kts | 70° |
| 2026-04-12 01:36 | 34.11595 | 133.56008 | 35576 ft | 559 kts | 70° |
| 2026-04-12 01:37 | 34.12557 | 133.60550 | 35861 ft | 559 kts | 70° |
| 2026-04-12 01:37 | 34.13513 | 133.65099 | 36126 ft | 559 kts | 70° |
| 2026-04-12 01:37 | 34.14466 | 133.69648 | 36385 ft | 560 kts | 70° |
| 2026-04-12 01:37 | 34.15419 | 133.74210 | 36628 ft | 560 kts | 70° |
| 2026-04-12 01:38 | 34.16369 | 133.78769 | 36897 ft | 560 kts | 70° |
| 2026-04-12 01:38 | 34.17306 | 133.83266 | 37054 ft | 559 kts | 70° |
| 2026-04-12 01:38 | 34.18250 | 133.87805 | 37098 ft | 556 kts | 70° |
| 2026-04-12 01:39 | 34.20128 | 133.96837 | 37083 ft | 553 kts | 70° |
| 2026-04-12 01:39 | 34.21993 | 134.05849 | 37082 ft | 553 kts | 71° |
| 2026-04-12 01:40 | 34.23816 | 134.14872 | 37080 ft | 553 kts | 71° |
| 2026-04-12 01:40 | 34.25614 | 134.23906 | 37080 ft | 553 kts | 71° |
| 2026-04-12 01:41 | 34.27412 | 134.32950 | 37084 ft | 553 kts | 71° |
| 2026-04-12 01:41 | 34.29214 | 134.41975 | 37085 ft | 552 kts | 71° |
| 2026-04-12 01:42 | 34.31022 | 134.51007 | 37086 ft | 552 kts | 71° |
| 2026-04-12 01:42 | 34.32808 | 134.60035 | 37089 ft | 552 kts | 71° |
| 2026-04-12 01:43 | 34.34570 | 134.69064 | 37098 ft | 551 kts | 71° |
| 2026-04-12 01:43 | 34.36343 | 134.78102 | 37096 ft | 551 kts | 71° |
| 2026-04-12 01:44 | 34.38110 | 134.87133 | 37093 ft | 552 kts | 72° |
| 2026-04-12 01:44 | 34.39709 | 134.96163 | 37103 ft | 553 kts | 75° |
| 2026-04-12 01:45 | 34.41125 | 135.05315 | 37104 ft | 553 kts | 75° |
| 2026-04-12 01:45 | 34.42123 | 135.11836 | 37109 ft | 552 kts | 75° |
| 2026-04-12 01:46 | 34.43547 | 135.20849 | 37118 ft | 552 kts | 75° |
| 2026-04-12 01:46 | 34.45026 | 135.29968 | 37120 ft | 551 kts | 74° |
| 2026-04-12 01:47 | 34.46499 | 135.39091 | 37121 ft | 551 kts | 75° |
| 2026-04-12 01:47 | 34.47949 | 135.48200 | 37114 ft | 551 kts | 75° |
| 2026-04-12 01:48 | 34.49385 | 135.57316 | 37107 ft | 550 kts | 75° |
| 2026-04-12 01:48 | 34.50812 | 135.66433 | 37108 ft | 551 kts | 75° |
| 2026-04-12 01:49 | 34.52232 | 135.75498 | 37094 ft | 550 kts | 75° |
| 2026-04-12 01:49 | 34.53660 | 135.84675 | 37098 ft | 551 kts | 75° |
| 2026-04-12 01:50 | 34.55061 | 135.93751 | 37092 ft | 551 kts | 75° |
| 2026-04-12 01:50 | 34.56461 | 136.02880 | 37092 ft | 550 kts | 75° |
| 2026-04-12 01:51 | 34.58550 | 136.16598 | 37097 ft | 551 kts | 76° |
| 2026-04-12 01:51 | 34.59942 | 136.25740 | 37092 ft | 551 kts | 76° |
| 2026-04-12 01:52 | 34.61341 | 136.34874 | 37086 ft | 551 kts | 75° |
| 2026-04-12 01:52 | 34.62712 | 136.43810 | 37083 ft | 551 kts | 76° |
| 2026-04-12 01:53 | 34.64093 | 136.52955 | 37077 ft | 551 kts | 76° |
| 2026-04-12 01:53 | 34.65466 | 136.62107 | 37073 ft | 551 kts | 76° |
| 2026-04-12 01:54 | 34.66836 | 136.71263 | 37073 ft | 551 kts | 76° |
| 2026-04-12 01:54 | 34.68199 | 136.80427 | 37071 ft | 551 kts | 76° |
| 2026-04-12 01:55 | 34.69546 | 136.89525 | 37066 ft | 551 kts | 76° |
| 2026-04-12 01:55 | 34.70518 | 136.98769 | 37059 ft | 555 kts | 88° |
| 2026-04-12 01:56 | 34.70622 | 137.08154 | 37055 ft | 555 kts | 88° |
| 2026-04-12 01:56 | 34.70735 | 137.17540 | 37053 ft | 555 kts | 88° |
| 2026-04-12 01:57 | 34.70853 | 137.26925 | 37056 ft | 555 kts | 88° |
| 2026-04-12 01:57 | 34.70941 | 137.34728 | 37055 ft | 555 kts | 88° |
| 2026-04-12 01:58 | 34.71032 | 137.44109 | 37052 ft | 555 kts | 88° |
| 2026-04-12 01:58 | 34.71107 | 137.53500 | 37047 ft | 555 kts | 88° |
| 2026-04-12 01:59 | 34.71189 | 137.62868 | 37032 ft | 555 kts | 88° |
| 2026-04-12 01:59 | 34.71269 | 137.72273 | 37026 ft | 556 kts | 88° |
| 2026-04-12 02:00 | 34.71328 | 137.81660 | 37020 ft | 555 kts | 88° |
| 2026-04-12 02:00 | 34.71354 | 137.86365 | 36844 ft | 556 kts | 88° |
| 2026-04-12 02:00 | 34.71379 | 137.90995 | 36594 ft | 555 kts | 88° |
| 2026-04-12 02:01 | 34.71406 | 137.95675 | 36344 ft | 554 kts | 88° |
| 2026-04-12 02:01 | 34.71431 | 138.00355 | 36096 ft | 554 kts | 88° |
| 2026-04-12 02:01 | 34.71453 | 138.05048 | 35845 ft | 556 kts | 89° |
| 2026-04-12 02:01 | 34.71473 | 138.09754 | 35217 ft | 560 kts | 89° |
| 2026-04-12 02:02 | 34.71491 | 138.14530 | 34289 ft | 565 kts | 89° |
| 2026-04-12 02:02 | 34.71506 | 138.19316 | 33383 ft | 567 kts | 89° |
| 2026-04-12 02:02 | 34.71520 | 138.24132 | 32324 ft | 572 kts | 89° |
| 2026-04-12 02:02 | 34.71533 | 138.28977 | 31456 ft | 572 kts | 89° |
| 2026-04-12 02:03 | 34.71546 | 138.33776 | 30881 ft | 565 kts | 89° |
| 2026-04-12 02:03 | 34.71556 | 138.38522 | 30210 ft | 560 kts | 89° |
| 2026-04-12 02:03 | 34.71565 | 138.43232 | 29563 ft | 554 kts | 89° |
| 2026-04-12 02:03 | 34.71570 | 138.47887 | 28923 ft | 548 kts | 89° |
| 2026-04-12 02:04 | 34.71573 | 138.52496 | 28292 ft | 542 kts | 89° |
| 2026-04-12 02:04 | 34.71574 | 138.57050 | 27665 ft | 535 kts | 90° |
| 2026-04-12 02:04 | 34.71573 | 138.61531 | 27134 ft | 527 kts | 90° |
| 2026-04-12 02:04 | 34.71571 | 138.65975 | 26440 ft | 523 kts | 90° |
| 2026-04-12 02:05 | 34.71568 | 138.70350 | 25966 ft | 514 kts | 90° |
| 2026-04-12 02:05 | 34.71565 | 138.74664 | 25283 ft | 507 kts | 90° |
| 2026-04-12 02:05 | 34.71560 | 138.78878 | 24600 ft | 489 kts | 90° |
| 2026-04-12 02:05 | 34.71557 | 138.82855 | 24175 ft | 466 kts | 90° |
| 2026-04-12 02:06 | 34.71548 | 138.86720 | 23667 ft | 448 kts | 90° |
| 2026-04-12 02:06 | 34.71533 | 138.90431 | 23210 ft | 431 kts | 90° |
| 2026-04-12 02:06 | 34.71517 | 138.94035 | 22771 ft | 425 kts | 90° |
| 2026-04-12 02:06 | 34.71499 | 138.97631 | 22327 ft | 430 kts | 90° |
| 2026-04-12 02:07 | 34.71480 | 139.01337 | 21847 ft | 443 kts | 90° |
| 2026-04-12 02:07 | 34.71667 | 139.05062 | 21502 ft | 440 kts | 78° |
| 2026-04-12 02:07 | 34.72582 | 139.08581 | 21253 ft | 435 kts | 62° |
| 2026-04-12 02:07 | 34.73859 | 139.11903 | 21005 ft | 433 kts | 61° |
| 2026-04-12 02:08 | 34.75150 | 139.15210 | 20755 ft | 431 kts | 61° |
| 2026-04-12 02:08 | 34.76440 | 139.18494 | 20504 ft | 430 kts | 61° |
| 2026-04-12 02:08 | 34.77728 | 139.21760 | 20254 ft | 428 kts | 60° |
| 2026-04-12 02:08 | 34.78996 | 139.24978 | 20004 ft | 426 kts | 61° |
| 2026-04-12 02:09 | 34.80282 | 139.28254 | 19620 ft | 422 kts | 61° |
| 2026-04-12 02:09 | 34.81541 | 139.31472 | 19036 ft | 421 kts | 61° |
| 2026-04-12 02:09 | 34.82779 | 139.34649 | 18474 ft | 421 kts | 61° |
| 2026-04-12 02:09 | 34.84029 | 139.37866 | 17882 ft | 420 kts | 61° |
| 2026-04-12 02:10 | 34.85278 | 139.41078 | 17305 ft | 419 kts | 61° |
| 2026-04-12 02:10 | 34.86526 | 139.44287 | 16731 ft | 419 kts | 61° |
| 2026-04-12 02:10 | 34.87769 | 139.47486 | 16156 ft | 417 kts | 61° |
| 2026-04-12 02:10 | 34.89009 | 139.50676 | 15591 ft | 416 kts | 60° |
| 2026-04-12 02:11 | 34.90502 | 139.53641 | 15046 ft | 405 kts | 45° |
| 2026-04-12 02:11 | 34.92346 | 139.56198 | 14547 ft | 400 kts | 42° |
| 2026-04-12 02:11 | 34.94193 | 139.58705 | 14048 ft | 396 kts | 42° |
| 2026-04-12 02:11 | 34.96022 | 139.61193 | 13547 ft | 393 kts | 42° |
| 2026-04-12 02:12 | 34.97829 | 139.63662 | 13127 ft | 387 kts | 42° |
| 2026-04-12 02:12 | 34.99583 | 139.66080 | 13011 ft | 372 kts | 42° |
| 2026-04-12 02:12 | 35.01273 | 139.68435 | 13031 ft | 367 kts | 42° |
| 2026-04-12 02:12 | 35.02947 | 139.70779 | 13029 ft | 366 kts | 42° |
| 2026-04-12 02:13 | 35.04619 | 139.73124 | 13027 ft | 366 kts | 42° |
| 2026-04-12 02:13 | 35.06286 | 139.75466 | 13029 ft | 366 kts | 42° |
| 2026-04-12 02:13 | 35.07955 | 139.77811 | 13024 ft | 366 kts | 42° |
| 2026-04-12 02:13 | 35.09621 | 139.80153 | 13018 ft | 365 kts | 42° |
| 2026-04-12 02:14 | 35.11264 | 139.82470 | 13019 ft | 365 kts | 42° |
| 2026-04-12 02:14 | 35.12925 | 139.84821 | 13028 ft | 365 kts | 42° |
| 2026-04-12 02:14 | 35.14586 | 139.87171 | 13024 ft | 365 kts | 42° |
| 2026-04-12 02:14 | 35.16245 | 139.89526 | 13020 ft | 365 kts | 42° |
| 2026-04-12 02:15 | 35.17900 | 139.91879 | 13020 ft | 365 kts | 42° |
| 2026-04-12 02:15 | 35.19560 | 139.94228 | 13017 ft | 361 kts | 40° |
| 2026-04-12 02:15 | 35.21412 | 139.96147 | 12747 ft | 340 kts | 24° |
| 2026-04-12 02:15 | 35.23398 | 139.97669 | 12448 ft | 334 kts | 23° |
| 2026-04-12 02:16 | 35.25355 | 139.99159 | 12148 ft | 329 kts | 22° |
| 2026-04-12 02:16 | 35.27286 | 140.00625 | 11849 ft | 325 kts | 22° |
| 2026-04-12 02:16 | 35.29192 | 140.02074 | 11545 ft | 320 kts | 22° |
| 2026-04-12 02:16 | 35.31072 | 140.03508 | 11244 ft | 316 kts | 22° |
| 2026-04-12 02:17 | 35.32926 | 140.04925 | 10941 ft | 312 kts | 23° |
| 2026-04-12 02:17 | 35.34756 | 140.06322 | 10645 ft | 308 kts | 24° |
| 2026-04-12 02:17 | 35.36564 | 140.07700 | 10355 ft | 305 kts | 24° |
| 2026-04-12 02:17 | 35.38361 | 140.09072 | 10061 ft | 304 kts | 25° |
| 2026-04-12 02:18 | 35.40154 | 140.10439 | 9754 ft | 303 kts | 25° |
| 2026-04-12 02:18 | 35.41942 | 140.11803 | 9462 ft | 302 kts | 26° |
| 2026-04-12 02:18 | 35.43727 | 140.13164 | 9180 ft | 302 kts | 26° |
| 2026-04-12 02:18 | 35.45514 | 140.14527 | 8875 ft | 302 kts | 27° |
| 2026-04-12 02:19 | 35.47298 | 140.15891 | 8563 ft | 302 kts | 27° |
| 2026-04-12 02:19 | 35.49070 | 140.17248 | 8231 ft | 300 kts | 27° |
| 2026-04-12 02:19 | 35.50834 | 140.18600 | 7880 ft | 298 kts | 27° |
| 2026-04-12 02:19 | 35.52635 | 140.19805 | 7514 ft | 289 kts | 12° |
| 2026-04-12 02:20 | 35.54553 | 140.19934 | 7182 ft | 270 kts | 341° |
| 2026-04-12 02:20 | 35.56308 | 140.19221 | 6834 ft | 266 kts | 336° |
| 2026-04-12 02:20 | 35.58022 | 140.18420 | 6483 ft | 259 kts | 324° |
| 2026-04-12 02:20 | 35.59267 | 140.16955 | 6140 ft | 249 kts | 301° |
| 2026-04-12 02:21 | 35.60176 | 140.15123 | 5784 ft | 247 kts | 295° |
| 2026-04-12 02:21 | 35.60656 | 140.13152 | 5445 ft | 245 kts | 278° |
| 2026-04-12 02:21 | 35.60735 | 140.11062 | 5112 ft | 244 kts | 270° |
| 2026-04-12 02:21 | 35.60724 | 140.09015 | 4998 ft | 233 kts | 271° |
| 2026-04-12 02:22 | 35.60709 | 140.07082 | 4891 ft | 223 kts | 270° |
| 2026-04-12 02:22 | 35.60687 | 140.05181 | 4606 ft | 220 kts | 270° |
| 2026-04-12 02:22 | 35.60664 | 140.03317 | 4327 ft | 214 kts | 270° |
| 2026-04-12 02:22 | 35.60642 | 140.01527 | 4053 ft | 205 kts | 271° |
| 2026-04-12 02:23 | 35.60620 | 139.99810 | 3782 ft | 197 kts | 271° |
| 2026-04-12 02:23 | 35.60600 | 139.98177 | 3554 ft | 186 kts | 271° |
| 2026-04-12 02:23 | 35.60579 | 139.96598 | 3317 ft | 183 kts | 271° |
| 2026-04-12 02:23 | 35.60560 | 139.95032 | 3065 ft | 184 kts | 271° |
| 2026-04-12 02:24 | 35.60539 | 139.93456 | 2790 ft | 184 kts | 271° |
| 2026-04-12 02:24 | 35.60519 | 139.91936 | 2544 ft | 171 kts | 270° |
| 2026-04-12 02:24 | 35.60500 | 139.90521 | 2300 ft | 164 kts | 270° |
| 2026-04-12 02:24 | 35.60482 | 139.89131 | 2060 ft | 162 kts | 269° |
| 2026-04-12 02:25 | 35.60463 | 139.87759 | 1829 ft | 157 kts | 269° |
| 2026-04-12 02:25 | 35.60446 | 139.86475 | 1619 ft | 141 kts | 268° |
| 2026-04-12 02:25 | 35.60430 | 139.85288 | 1430 ft | 140 kts | 268° |
| 2026-04-12 02:25 | 35.60412 | 139.84118 | 1280 ft | 135 kts | 266° |
| 2026-04-12 02:26 | 35.60391 | 139.82975 | 1132 ft | 133 kts | 265° |
| 2026-04-12 02:26 | 35.60269 | 139.81852 | 981 ft | 132 kts | 251° |
| 2026-04-12 02:26 | 35.59893 | 139.80831 | 897 ft | 132 kts | 235° |
| 2026-04-12 02:26 | 35.59315 | 139.79966 | 742 ft | 131 kts | 221° |
| 2026-04-12 02:27 | 35.58610 | 139.79274 | 581 ft | 129 kts | 212° |
| 2026-04-12 02:27 | 35.57858 | 139.78665 | 367 ft | 130 kts | 212° |
| 2026-04-12 02:27 | 35.57110 | 139.78026 | 183 ft | 133 kts | 212° |
| 2026-04-12 02:27 | 35.56356 | 139.77378 | 39 ft | 127 kts | 216° |
| 2026-04-12 02:28 | 35.55832 | 139.76926 | 28 ft | 57 kts | 214° |
| 2026-04-12 02:28 | 35.55587 | 139.76717 | 26 ft | 33 kts | 214° |
| 2026-04-12 02:28 | 35.55372 | 139.76629 | 23 ft | 30 kts | 189° |
| 2026-04-12 02:28 | 35.55219 | 139.76598 | 23 ft | 18 kts | 179° |
| 2026-04-12 02:29 | 35.55139 | 139.76647 | 24 ft | 14 kts | 108° |
| 2026-04-12 02:29 | 35.55176 | 139.76764 | 24 ft | 16 kts | 60° |
| 2026-04-12 02:29 | 35.55241 | 139.76899 | 21 ft | 21 kts | 59° |
| 2026-04-12 02:29 | 35.55313 | 139.77052 | 22 ft | 16 kts | 59° |
| 2026-04-12 02:30 | 35.55293 | 139.77152 | 20 ft | 15 kts | 149° |
| 2026-04-12 02:30 | 35.55197 | 139.77220 | 23 ft | 16 kts | 150° |
| 2026-04-12 02:30 | 35.55085 | 139.77300 | 20 ft | 21 kts | 150° |
| 2026-04-12 02:30 | 35.54954 | 139.77393 | 21 ft | 23 kts | 149° |
| 2026-04-12 02:31 | 35.54808 | 139.77497 | 22 ft | 25 kts | 150° |
| 2026-04-12 02:31 | 35.54649 | 139.77610 | 19 ft | 28 kts | 149° |
| 2026-04-12 02:31 | 35.54479 | 139.77730 | 20 ft | 29 kts | 149° |
| 2026-04-12 02:31 | 35.54302 | 139.77856 | 19 ft | 31 kts | 149° |
| 2026-04-12 02:32 | 35.54136 | 139.77973 | 19 ft | 18 kts | 150° |
| 2026-04-12 02:32 | 35.54068 | 139.78042 | 19 ft | 13 kts | 110° |
| 2026-04-12 02:32 | 35.54099 | 139.78147 | 20 ft | 14 kts | 59° |
| 2026-04-12 02:32 | 35.54148 | 139.78250 | 23 ft | 17 kts | 59° |
| 2026-04-12 02:33 | 35.54219 | 139.78400 | 23 ft | 22 kts | 60° |
| 2026-04-12 02:33 | 35.54297 | 139.78566 | 27 ft | 22 kts | 60° |
| 2026-04-12 02:33 | 35.54375 | 139.78731 | 32 ft | 22 kts | 59° |
| 2026-04-12 02:33 | 35.54429 | 139.78843 | 35 ft | 7 kts | 58° |
| 2026-04-12 02:34 | 35.54465 | 139.78845 | 35 ft | 6 kts | 340° |
| 2026-04-12 02:34 | 35.54509 | 139.78813 | 32 ft | 9 kts | 329° |
| 2026-04-12 02:34 | 35.54553 | 139.78782 | 31 ft | 5 kts | 330° |
| 2026-04-12 02:34 | 35.54563 | 139.78775 | 31 ft | 1 kts | 329° |
| 2026-04-12 02:35 | 35.54570 | 139.78770 | 31 ft | 0 kts | 329° |